Time;durP1;ratioP1;P1;durP2;ratioP2;P2;SDS_P1;SDS_P2;PMS_P1;PMS_P2;Temp;Humidity;BMP_temperature;BMP_pressure;BME280_temperature;BME280_humidity;BME280_pressure;Samples;Min_cycle;Max_cycle;Signal;HPM_P1;HPM_P2
2022/04/04 00:01:45;;;;;;;3.80;3.42;;;16.20;42.80;;;;;;6191339;23;20190;-72
2022/04/04 00:04:12;;;;;;;3.83;3.40;;;16.20;42.50;;;;;;6216714;23;20179;-71
2022/04/04 00:06:40;;;;;;;3.72;3.35;;;16.20;42.50;;;;;;6190350;23;20178;-71
2022/04/04 00:09:07;;;;;;;4.57;3.30;;;16.20;42.80;;;;;;6190429;23;20171;-71
2022/04/04 00:11:35;;;;;;;3.58;3.28;;;16.20;42.80;;;;;;6217474;23;20191;-71
2022/04/04 00:14:03;;;;;;;4.20;3.30;;;16.20;42.60;;;;;;6190020;23;20195;-71
2022/04/04 00:16:32;;;;;;;3.97;3.67;;;16.10;42.70;;;;;;6216760;23;20192;-71
2022/04/04 00:19:00;;;;;;;3.55;3.25;;;16.10;42.60;;;;;;6216361;23;20176;-71
2022/04/04 00:21:27;;;;;;;4.30;3.45;;;16.10;42.60;;;;;;6189681;23;20176;-71
2022/04/04 00:23:54;;;;;;;3.47;3.17;;;16.10;42.70;;;;;;6189839;23;20198;-71
2022/04/04 00:26:21;;;;;;;4.03;3.65;;;16.10;42.70;;;;;;6190193;23;20627;-71
2022/04/04 00:28:51;;;;;;;3.65;3.35;;;16.00;42.60;;;;;;6189668;23;20199;-71
2022/04/04 00:31:18;;;;;;;3.67;3.38;;;16.00;42.60;;;;;;6216106;23;20501;-71
2022/04/04 00:33:45;;;;;;;4.25;3.60;;;16.00;42.60;;;;;;6189259;23;20191;-71
2022/04/04 00:36:13;;;;;;;4.03;3.72;;;16.00;42.80;;;;;;6189584;23;20246;-71
2022/04/04 00:38:40;;;;;;;3.83;3.53;;;16.00;42.70;;;;;;6189718;23;20191;-71
2022/04/04 00:41:08;;;;;;;4.20;3.63;;;16.00;42.60;;;;;;6189097;23;20181;-71
2022/04/04 00:43:35;;;;;;;4.00;3.60;;;15.90;42.40;;;;;;6189717;23;20197;-71
2022/04/04 00:46:03;;;;;;;3.65;3.35;;;15.90;42.50;;;;;;6189518;23;20172;-71
2022/04/04 00:48:30;;;;;;;3.92;3.53;;;15.90;42.50;;;;;;6189322;23;20270;-71
2022/04/04 00:50:57;;;;;;;3.80;3.40;;;15.90;42.50;;;;;;6189526;23;20167;-72
2022/04/04 00:53:25;;;;;;;4.10;3.70;;;15.90;42.90;;;;;;6189909;23;20192;-71
2022/04/04 00:55:52;;;;;;;3.47;3.17;;;15.90;42.50;;;;;;6216958;23;20167;-71
2022/04/04 00:58:20;;;;;;;4.07;3.72;;;15.80;42.30;;;;;;6191314;23;20206;-71
2022/04/04 01:00:48;;;;;;;4.22;3.83;;;15.80;42.10;;;;;;6191253;23;20167;-71
2022/04/04 01:03:16;;;;;;;5.03;3.55;;;15.80;42.00;;;;;;6217792;23;20515;-71
2022/04/04 01:05:44;;;;;;;3.53;3.30;;;15.80;42.00;;;;;;6191180;23;20171;-71
2022/04/04 01:08:12;;;;;;;4.05;3.65;;;15.80;42.10;;;;;;6191508;23;20273;-71
2022/04/04 01:10:39;;;;;;;3.30;3.08;;;15.70;41.90;;;;;;6191706;23;20174;-71
2022/04/04 01:13:07;;;;;;;3.90;3.60;;;15.80;41.90;;;;;;6217764;23;20186;-71
2022/04/04 01:15:34;;;;;;;3.63;3.33;;;15.70;41.80;;;;;;6191129;23;20176;-71
2022/04/04 01:18:01;;;;;;;3.75;3.45;;;15.70;42.00;;;;;;6190965;23;20177;-71
2022/04/04 01:20:29;;;;;;;3.97;3.58;;;15.70;41.90;;;;;;6190980;23;20195;-71
2022/04/04 01:22:56;;;;;;;3.70;3.40;;;15.70;42.10;;;;;;6190957;23;20191;-71
2022/04/04 01:25:26;;;;;;;3.95;3.50;;;15.70;42.20;;;;;;6190924;23;20198;-71
2022/04/04 01:27:54;;;;;;;4.20;3.80;;;15.70;41.90;;;;;;6191242;23;20168;-71
2022/04/04 01:30:22;;;;;;;3.85;3.55;;;15.60;41.90;;;;;;6191008;23;20619;-71
2022/04/04 01:32:50;;;;;;;4.60;4.18;;;15.60;41.90;;;;;;6190937;23;20194;-71
2022/04/04 01:35:18;;;;;;;4.40;3.47;;;15.60;41.90;;;;;;6191055;23;20172;-72
2022/04/04 01:37:44;;;;;;;4.35;3.97;;;15.60;41.80;;;;;;6190734;23;20218;-71
2022/04/04 01:40:12;;;;;;;4.03;3.72;;;15.60;42.00;;;;;;6190820;23;20279;-72
2022/04/04 01:42:42;;;;;;;3.88;3.58;;;15.50;41.90;;;;;;6191108;23;20198;-71
2022/04/04 01:45:11;;;;;;;3.75;3.45;;;15.50;42.00;;;;;;6191119;23;20239;-71
2022/04/04 01:47:38;;;;;;;3.50;3.20;;;15.50;42.00;;;;;;6217620;23;20190;-71
2022/04/04 01:50:06;;;;;;;4.20;3.80;;;15.50;42.00;;;;;;6191069;23;20266;-71
2022/04/04 01:52:33;;;;;;;3.85;3.40;;;15.50;42.10;;;;;;6217480;23;20627;-71
2022/04/04 01:55:00;;;;;;;4.18;3.78;;;15.50;42.10;;;;;;6190683;23;20255;-71
2022/04/04 01:57:27;;;;;;;4.03;3.63;;;15.40;41.60;;;;;;6190904;23;20175;-71
2022/04/04 01:59:56;;;;;;;3.60;3.30;;;15.50;41.80;;;;;;6217242;23;20191;-71
2022/04/04 02:02:23;;;;;;;3.92;3.63;;;15.40;41.90;;;;;;6190995;23;20191;-71
2022/04/04 02:04:50;;;;;;;4.20;3.88;;;15.40;42.00;;;;;;6190894;23;20552;-71
2022/04/04 02:07:17;;;;;;;4.05;3.65;;;15.40;41.80;;;;;;6190125;23;20580;-71
2022/04/04 02:09:44;;;;;;;3.90;3.60;;;15.40;41.80;;;;;;6190712;23;20195;-71
2022/04/04 02:12:11;;;;;;;3.53;3.22;;;15.40;42.00;;;;;;6217649;23;20246;-71
2022/04/04 02:14:38;;;;;;;4.25;3.80;;;15.30;41.70;;;;;;6191276;23;20175;-71
2022/04/04 02:17:07;;;;;;;4.15;3.75;;;15.30;41.90;;;;;;6190685;23;20257;-71
2022/04/04 02:19:34;;;;;;;3.95;3.65;;;15.30;41.70;;;;;;6217220;23;20184;-71
2022/04/04 02:22:01;;;;;;;4.03;3.72;;;15.30;41.80;;;;;;6190812;23;20175;-71
2022/04/04 02:24:28;;;;;;;4.40;4.00;;;15.30;41.80;;;;;;6205123;23;20228;-71
2022/04/04 02:26:56;;;;;;;4.13;3.83;;;15.30;41.80;;;;;;6220921;23;20178;-71
2022/04/04 02:29:22;;;;;;;3.88;3.58;;;15.30;41.90;;;;;;6220908;23;20173;-72
2022/04/04 02:31:50;;;;;;;3.90;3.60;;;15.20;41.60;;;;;;6220830;23;20171;-72
2022/04/04 02:34:18;;;;;;;3.70;3.40;;;15.20;41.80;;;;;;6191562;23;20222;-71
2022/04/04 02:36:45;;;;;;;3.95;3.65;;;15.20;41.60;;;;;;6190592;23;20262;-71
2022/04/04 02:39:12;;;;;;;4.05;3.75;;;15.20;41.80;;;;;;6190676;23;20188;-71
2022/04/04 02:41:39;;;;;;;3.90;3.60;;;15.20;41.80;;;;;;6190566;23;20171;-71
2022/04/04 02:44:07;;;;;;;4.40;4.00;;;15.20;41.80;;;;;;6216923;23;20187;-71
2022/04/04 02:46:35;;;;;;;3.97;3.67;;;15.20;41.80;;;;;;6191516;23;20175;-71
2022/04/04 02:49:03;;;;;;;4.63;4.20;;;15.20;42.00;;;;;;6190832;23;20494;-71
2022/04/04 02:51:32;;;;;;;4.20;3.80;;;15.10;41.80;;;;;;6190852;23;20176;-71
2022/04/04 02:53:59;;;;;;;4.10;3.80;;;15.10;41.70;;;;;;6190533;23;20202;-71
2022/04/04 02:56:32;;;;;;;3.90;3.60;;;15.10;41.90;;;;;;6190518;23;20624;-71
2022/04/04 02:59:00;;;;;;;3.92;3.55;;;15.00;41.80;;;;;;6190467;23;20180;-71
2022/04/04 03:01:27;;;;;;;4.10;3.80;;;15.10;41.80;;;;;;6217452;23;20168;-72
2022/04/04 03:03:54;;;;;;;4.20;3.80;;;15.10;41.80;;;;;;6217034;23;20187;-71
2022/04/04 03:06:21;;;;;;;4.03;3.72;;;15.10;41.80;;;;;;6217207;23;20163;-73
2022/04/04 03:08:50;;;;;;;3.58;3.28;;;15.00;41.60;;;;;;6190672;23;20181;-72
2022/04/04 03:11:18;;;;;;;3.85;3.55;;;15.00;41.60;;;;;;6217145;23;20242;-71
2022/04/04 03:13:45;;;;;;;4.20;3.90;;;15.00;41.70;;;;;;6217050;23;20187;-71
2022/04/04 03:16:12;;;;;;;4.32;3.92;;;15.00;41.60;;;;;;6190061;23;20176;-71
2022/04/04 03:18:40;;;;;;;4.38;3.97;;;15.00;41.70;;;;;;6191137;23;20171;-72
2022/04/04 03:21:07;;;;;;;3.75;3.45;;;15.00;41.80;;;;;;6217044;23;20163;-72
2022/04/04 03:23:39;;;;;;;3.80;3.50;;;15.00;41.70;;;;;;6189916;23;20196;-72
2022/04/04 03:26:08;;;;;;;3.78;3.47;;;15.00;41.80;;;;;;6190301;23;20232;-71
2022/04/04 03:28:35;;;;;;;3.95;3.63;;;15.00;41.80;;;;;;6190255;23;20171;-71
2022/04/04 03:31:04;;;;;;;4.13;3.83;;;15.00;41.80;;;;;;6190296;23;20254;-71
2022/04/04 03:33:31;;;;;;;4.88;4.45;;;14.90;41.70;;;;;;6190291;23;20191;-71
2022/04/04 03:35:59;;;;;;;4.32;4.03;;;15.00;41.70;;;;;;6190280;23;20167;-71
2022/04/04 03:38:27;;;;;;;4.47;4.07;;;15.00;41.50;;;;;;6191027;23;20180;-72
2022/04/04 03:40:54;;;;;;;5.05;4.55;;;15.00;41.30;;;;;;6189950;23;20228;-71
2022/04/04 03:43:23;;;;;;;4.68;4.28;;;15.00;41.20;;;;;;6190177;23;20682;-71
2022/04/04 03:45:50;;;;;;;4.32;4.00;;;15.00;41.40;;;;;;6190282;23;20172;-71
2022/04/04 03:48:17;;;;;;;4.43;4.07;;;15.00;41.10;;;;;;6189931;23;20203;-71
2022/04/04 03:50:45;;;;;;;4.88;4.38;;;15.00;41.10;;;;;;6216561;23;20168;-71
2022/04/04 03:53:13;;;;;;;4.65;4.22;;;15.00;41.80;;;;;;6216475;23;20242;-71
2022/04/04 03:55:40;;;;;;;4.15;3.80;;;15.00;41.10;;;;;;6189986;23;20562;-73
2022/04/04 03:58:08;;;;;;;4.38;3.97;;;15.00;41.00;;;;;;6216703;23;20527;-71
2022/04/04 04:00:37;;;;;;;4.45;4.13;;;15.00;41.10;;;;;;6189813;23;20188;-71
2022/04/04 04:03:04;;;;;;;3.95;3.58;;;15.10;41.10;;;;;;6189798;23;20191;-70
2022/04/04 04:05:31;;;;;;;4.03;3.72;;;15.00;41.30;;;;;;6216702;23;20221;-71
2022/04/04 04:07:58;;;;;;;4.50;4.10;;;15.00;41.80;;;;;;6189887;23;20179;-71
2022/04/04 04:10:26;;;;;;;4.10;3.80;;;15.00;40.80;;;;;;6195537;23;20203;-71
2022/04/04 04:12:53;;;;;;;4.80;4.10;;;15.10;41.30;;;;;;6208450;23;20250;-70
2022/04/04 04:15:21;;;;;;;4.28;3.97;;;15.10;41.80;;;;;;6189992;23;20179;-71
2022/04/04 04:17:52;;;;;;;4.47;4.07;;;15.10;42.00;;;;;;6196641;23;20249;-70
2022/04/04 04:20:23;;;;;;;4.80;4.40;;;15.10;41.90;;;;;;6226419;23;20196;-70
2022/04/04 04:22:52;;;;;;;5.28;4.32;;;15.10;43.50;;;;;;6212777;22;20239;-68
2022/04/04 04:25:19;;;;;;;5.00;4.50;;;15.20;44.20;;;;;;6246165;23;20674;-69
2022/04/04 04:27:46;;;;;;;4.63;4.22;;;15.20;43.00;;;;;;6230065;22;20205;-71
2022/04/04 04:30:14;;;;;;;4.03;3.72;;;15.20;42.80;;;;;;6250226;22;20511;-72
2022/04/04 04:32:43;;;;;;;4.72;4.20;;;15.20;43.30;;;;;;6230229;22;20203;-52
2022/04/04 04:35:12;;;;;;;6.10;4.55;;;15.20;42.20;;;;;;6203050;23;20196;-53
2022/04/04 04:37:39;;;;;;;4.43;4.10;;;15.20;42.00;;;;;;6186255;23;20188;-52
2022/04/04 04:40:08;;;;;;;4.50;4.10;;;15.30;41.90;;;;;;6185313;23;20181;-52
2022/04/04 04:42:35;;;;;;;5.13;4.63;;;15.30;42.00;;;;;;6185537;23;20171;-53
2022/04/04 04:45:04;;;;;;;5.07;4.53;;;15.40;42.00;;;;;;6183981;23;20659;-54
2022/04/04 04:47:31;;;;;;;4.53;4.13;;;15.40;41.10;;;;;;6208970;23;20176;-52
2022/04/04 04:49:59;;;;;;;4.97;4.50;;;15.50;41.50;;;;;;6184709;23;20199;-52
2022/04/04 04:52:27;;;;;;;4.57;4.18;;;15.50;41.90;;;;;;6186566;23;20176;-52
2022/04/04 04:54:55;;;;;;;4.22;3.80;;;15.50;41.40;;;;;;6206723;22;20203;-70
2022/04/04 04:57:22;;;;;;;4.25;3.95;;;15.50;40.50;;;;;;6250553;22;20236;-71
2022/04/04 04:59:50;;;;;;;4.90;4.50;;;15.50;40.20;;;;;;6250088;22;20190;-72
2022/04/04 05:02:17;;;;;;;4.32;3.92;;;15.60;40.30;;;;;;6196836;22;20900;-69
2022/04/04 05:04:44;;;;;;;4.57;4.05;;;15.50;40.00;;;;;;6155906;23;20553;-69
2022/04/04 05:07:13;;;;;;;4.82;4.45;;;15.60;40.50;;;;;;6154905;23;20256;-69
2022/04/04 05:09:42;;;;;;;4.07;3.78;;;15.60;40.50;;;;;;6155834;23;20228;-71
2022/04/04 05:12:09;;;;;;;4.72;4.15;;;15.60;40.40;;;;;;6154673;23;20201;-72
2022/04/04 05:14:37;;;;;;;5.10;4.45;;;15.60;40.30;;;;;;6156656;23;20165;-72
2022/04/04 05:17:05;;;;;;;4.57;4.18;;;15.70;40.10;;;;;;6154614;23;20196;-69
2022/04/04 05:19:33;;;;;;;4.35;3.72;;;15.70;40.10;;;;;;6154707;23;20184;-69
2022/04/04 05:22:00;;;;;;;4.53;4.13;;;15.70;40.10;;;;;;6154850;23;20177;-69
2022/04/04 05:24:28;;;;;;;4.93;4.40;;;15.80;39.90;;;;;;6154885;23;20509;-69
2022/04/04 05:26:57;;;;;;;4.90;4.50;;;15.70;39.50;;;;;;6156614;23;20165;-69
2022/04/04 05:29:26;;;;;;;4.22;3.92;;;15.80;39.70;;;;;;6154696;23;20176;-69
2022/04/04 05:31:54;;;;;;;4.13;3.58;;;15.80;39.80;;;;;;6154469;23;20185;-69
2022/04/04 05:34:22;;;;;;;4.30;3.90;;;15.80;39.50;;;;;;6154585;23;20197;-69
2022/04/04 05:36:49;;;;;;;4.30;4.00;;;15.80;39.50;;;;;;6154456;23;20688;-69
2022/04/04 05:39:16;;;;;;;4.30;4.00;;;15.90;39.40;;;;;;6154431;23;20668;-69
2022/04/04 05:41:44;;;;;;;5.15;4.75;;;15.90;39.20;;;;;;6155089;23;20203;-69
2022/04/04 05:44:12;;;;;;;4.20;3.80;;;15.90;39.10;;;;;;6158269;23;20192;-69
2022/04/04 05:46:39;;;;;;;4.70;4.30;;;16.00;39.30;;;;;;6157917;23;20175;-69
2022/04/04 05:49:06;;;;;;;4.68;4.28;;;16.10;38.90;;;;;;6156241;23;20200;-69
2022/04/04 05:51:33;;;;;;;4.13;3.75;;;16.20;38.90;;;;;;6156448;23;20636;-69
2022/04/04 05:54:01;;;;;;;4.05;3.75;;;16.30;38.80;;;;;;6156291;23;20196;-69
2022/04/04 05:56:28;;;;;;;4.80;4.40;;;16.30;38.30;;;;;;6156205;23;20177;-69
2022/04/04 05:58:55;;;;;;;4.97;4.05;;;16.40;38.40;;;;;;6156178;23;20280;-69
2022/04/04 06:01:23;;;;;;;5.07;4.68;;;16.50;38.10;;;;;;6156028;23;20664;-69
2022/04/04 06:03:50;;;;;;;4.65;4.25;;;16.60;38.00;;;;;;6156901;23;20197;-69
2022/04/04 06:06:18;;;;;;;4.03;3.72;;;16.80;37.60;;;;;;6156118;23;20180;-69
2022/04/04 06:08:45;;;;;;;5.30;4.80;;;16.90;37.40;;;;;;6156049;23;20169;-69
2022/04/04 06:11:12;;;;;;;4.78;4.38;;;17.10;37.10;;;;;;6156015;23;20173;-69
2022/04/04 06:13:40;;;;;;;5.10;4.70;;;17.20;36.90;;;;;;6155701;23;20672;-69
2022/04/04 06:16:08;;;;;;;4.53;4.00;;;17.20;36.50;;;;;;6155835;23;20180;-69
2022/04/04 06:18:37;;;;;;;5.10;4.20;;;17.30;36.60;;;;;;6156119;23;20173;-69
2022/04/04 06:21:04;;;;;;;4.13;3.78;;;17.30;36.80;;;;;;6155597;23;20197;-69
2022/04/04 06:23:33;;;;;;;5.30;4.90;;;17.20;37.30;;;;;;6155555;23;20660;-70
2022/04/04 06:26:01;;;;;;;5.00;4.60;;;17.30;36.20;;;;;;6156133;23;20177;-69
2022/04/04 06:28:31;;;;;;;5.18;4.68;;;17.40;35.90;;;;;;6155826;23;20172;-69
2022/04/04 06:30:59;;;;;;;5.32;4.82;;;17.50;35.60;;;;;;6157602;23;20236;-70
2022/04/04 06:33:26;;;;;;;4.63;4.32;;;17.70;35.80;;;;;;6155818;23;20692;-69
2022/04/04 06:35:55;;;;;;;5.20;4.80;;;17.90;35.00;;;;;;6155610;23;20521;-70
2022/04/04 06:38:22;;;;;;;5.22;4.72;;;18.00;35.10;;;;;;6155733;23;20554;-70
2022/04/04 06:40:51;;;;;;;5.07;4.57;;;18.20;34.80;;;;;;6155475;23;20188;-70
2022/04/04 06:43:18;;;;;;;4.93;4.43;;;18.40;34.50;;;;;;6155775;23;20197;-70
2022/04/04 06:45:45;;;;;;;5.38;4.88;;;18.50;33.90;;;;;;6155529;23;20200;-70
2022/04/04 06:48:12;;;;;;;5.57;5.07;;;18.70;34.30;;;;;;6157335;23;20617;-70
2022/04/04 06:50:40;;;;;;;4.65;4.25;;;18.80;33.80;;;;;;6155955;23;20177;-70
2022/04/04 06:53:09;;;;;;;5.20;4.70;;;19.00;33.70;;;;;;6156958;23;20185;-69
2022/04/04 06:55:37;;;;;;;5.10;4.65;;;19.10;33.70;;;;;;6156976;23;20169;-69
2022/04/04 06:58:04;;;;;;;5.45;4.78;;;19.30;33.50;;;;;;6155355;23;20180;-70
2022/04/04 07:00:32;;;;;;;4.47;4.07;;;19.40;33.40;;;;;;6157242;23;20239;-70
2022/04/04 07:02:59;;;;;;;4.82;4.13;;;19.50;33.20;;;;;;6182435;23;20192;-70
2022/04/04 07:05:26;;;;;;;4.68;4.28;;;19.60;32.90;;;;;;6186478;23;20619;-70
2022/04/04 07:07:53;;;;;;;4.90;4.50;;;19.80;32.90;;;;;;6186759;23;20165;-70
2022/04/04 07:10:22;;;;;;;5.47;4.97;;;19.90;32.70;;;;;;6186978;23;20164;-70
2022/04/04 07:12:49;;;;;;;5.25;4.60;;;20.00;32.70;;;;;;6185107;23;20250;-70
2022/04/04 07:15:16;;;;;;;5.05;4.57;;;20.10;32.20;;;;;;6186651;23;20506;-70
2022/04/04 07:17:44;;;;;;;4.90;4.50;;;20.20;32.20;;;;;;6184880;23;20176;-70
2022/04/04 07:20:11;;;;;;;4.95;4.30;;;20.30;32.10;;;;;;6186692;23;20168;-69
2022/04/04 07:22:39;;;;;;;4.80;4.40;;;20.40;32.20;;;;;;6185719;23;20200;-70
2022/04/04 07:25:07;;;;;;;4.53;4.13;;;20.50;32.10;;;;;;6185791;23;20172;-70
2022/04/04 07:27:36;;;;;;;4.50;4.10;;;20.60;31.80;;;;;;6186991;23;20343;-71
2022/04/04 07:30:03;;;;;;;4.55;4.22;;;20.70;31.90;;;;;;6185169;23;20172;-70
2022/04/04 07:32:31;;;;;;;4.18;3.85;;;20.80;31.90;;;;;;6186608;23;20247;-70
2022/04/04 07:34:57;;;;;;;4.18;3.78;;;20.90;31.60;;;;;;6185292;23;20510;-70
2022/04/04 07:37:25;;;;;;;4.05;3.75;;;21.00;31.50;;;;;;6185642;23;20178;-69
2022/04/04 07:39:52;;;;;;;3.83;3.53;;;21.10;31.40;;;;;;6185584;23;20503;-70
2022/04/04 07:42:19;;;;;;;3.50;3.20;;;21.10;31.20;;;;;;6185309;23;20250;-70
2022/04/04 07:44:47;;;;;;;4.82;3.92;;;21.20;31.20;;;;;;6185205;23;20493;-70
2022/04/04 07:47:15;;;;;;;3.50;3.20;;;21.30;30.90;;;;;;6185389;23;20730;-69
2022/04/04 07:49:42;;;;;;;3.90;3.50;;;21.30;30.90;;;;;;6185680;23;20168;-69
2022/04/04 07:52:09;;;;;;;3.70;3.40;;;21.40;30.80;;;;;;6185524;23;20164;-70
2022/04/04 07:54:36;;;;;;;4.00;3.60;;;21.40;30.80;;;;;;6185092;23;20172;-70
2022/04/04 07:57:04;;;;;;;3.85;3.55;;;21.40;30.50;;;;;;6185478;23;20172;-69
2022/04/04 07:59:31;;;;;;;3.65;3.20;;;21.50;30.50;;;;;;6185317;23;20172;-70
2022/04/04 08:02:00;;;;;;;3.47;3.20;;;21.50;30.50;;;;;;6185743;23;20246;-70
2022/04/04 08:04:27;;;;;;;3.40;3.10;;;21.60;30.40;;;;;;6185333;23;20177;-70
2022/04/04 08:06:55;;;;;;;3.17;2.90;;;21.70;31.20;;;;;;6185418;23;20168;-70
2022/04/04 08:09:22;;;;;;;3.47;3.17;;;21.70;30.40;;;;;;6187025;23;20167;-70
2022/04/04 08:11:50;;;;;;;3.28;2.97;;;21.80;30.20;;;;;;6186739;23;20165;-70
2022/04/04 08:14:17;;;;;;;3.13;2.83;;;21.90;30.20;;;;;;6187191;23;20504;-70
2022/04/04 08:16:44;;;;;;;3.28;2.97;;;21.90;30.00;;;;;;6187432;23;20164;-69
2022/04/04 08:19:13;;;;;;;3.00;2.80;;;22.00;30.10;;;;;;6184959;23;20176;-70
2022/04/04 08:21:41;;;;;;;3.22;2.92;;;22.10;30.10;;;;;;6185725;23;20191;-70
2022/04/04 08:24:08;;;;;;;2.95;2.75;;;22.20;30.00;;;;;;6184928;23;20258;-70
2022/04/04 08:26:36;;;;;;;2.95;2.65;;;22.20;30.00;;;;;;6185108;23;20184;-70
2022/04/04 08:29:03;;;;;;;3.05;2.78;;;22.30;30.00;;;;;;6185050;23;20172;-71
2022/04/04 08:31:30;;;;;;;2.80;2.60;;;22.30;29.90;;;;;;6186236;23;20160;-71
2022/04/04 08:33:57;;;;;;;2.95;2.63;;;22.40;29.90;;;;;;6184672;23;20210;-71
2022/04/04 08:36:25;;;;;;;2.58;2.38;;;22.40;29.70;;;;;;6185161;23;20214;-70
2022/04/04 08:38:52;;;;;;;2.60;2.40;;;22.50;29.60;;;;;;6186077;23;20184;-71
2022/04/04 08:41:20;;;;;;;2.70;2.50;;;22.50;29.50;;;;;;6184160;23;20192;-71
2022/04/04 08:43:49;;;;;;;2.90;2.70;;;22.60;29.60;;;;;;6186016;23;20187;-71
2022/04/04 08:46:17;;;;;;;2.38;2.20;;;22.60;29.60;;;;;;6184464;23;20194;-71
2022/04/04 08:48:43;;;;;;;2.47;2.28;;;22.60;29.60;;;;;;6184353;23;20176;-71
2022/04/04 08:51:11;;;;;;;2.70;2.50;;;22.70;29.60;;;;;;6184861;23;20219;-71
2022/04/04 08:53:40;;;;;;;2.45;2.22;;;22.70;29.60;;;;;;6184374;23;20246;-71
2022/04/04 08:56:08;;;;;;;2.30;2.20;;;22.80;29.50;;;;;;6185887;23;20178;-71
2022/04/04 08:58:35;;;;;;;2.53;2.33;;;22.80;29.40;;;;;;6184261;23;20195;-71
2022/04/04 09:01:03;;;;;;;2.30;2.20;;;22.80;29.40;;;;;;6184604;23;20180;-71
2022/04/04 09:03:31;;;;;;;3.30;2.45;;;22.90;29.30;;;;;;6184384;23;20219;-71
2022/04/04 09:05:59;;;;;;;2.50;2.30;;;23.00;29.40;;;;;;6185071;23;20176;-71
2022/04/04 09:08:28;;;;;;;2.50;2.30;;;23.00;29.20;;;;;;6184900;23;20231;-71
2022/04/04 09:11:00;;;;;;;2.60;2.40;;;23.00;29.20;;;;;;6184338;23;20173;-71
2022/04/04 09:13:29;;;;;;;2.55;2.30;;;23.00;29.10;;;;;;6184236;23;20196;-71
2022/04/04 09:15:58;;;;;;;2.30;2.20;;;23.10;29.10;;;;;;6184713;23;20232;-71
2022/04/04 09:18:49;;;;;;;2.53;2.33;;;23.10;29.00;;;;;;6186246;23;20206;-71
2022/04/04 09:21:35;;;;;;;2.00;1.90;;;23.10;29.00;;;;;;6186733;23;20281;-71
2022/04/04 09:24:07;;;;;;;2.08;1.98;;;23.20;29.00;;;;;;6185824;23;20590;-71
2022/04/04 09:26:37;;;;;;;2.90;2.30;;;23.20;28.90;;;;;;6186750;23;20247;-71
2022/04/04 09:29:08;;;;;;;2.72;2.28;;;23.20;28.80;;;;;;6186012;23;20259;-71
2022/04/04 09:31:35;;;;;;;2.50;2.30;;;23.20;28.90;;;;;;6186072;23;20219;-71
2022/04/04 09:34:03;;;;;;;2.60;2.40;;;23.30;28.90;;;;;;6186096;23;20713;-71
2022/04/04 09:36:31;;;;;;;2.40;2.20;;;23.30;28.80;;;;;;6186271;23;20247;-71
2022/04/04 09:39:03;;;;;;;2.42;2.00;;;23.30;28.80;;;;;;6186370;23;20176;-71
2022/04/04 09:41:31;;;;;;;2.10;2.00;;;23.30;28.70;;;;;;6186217;23;20516;-71
2022/04/04 09:44:00;;;;;;;2.17;2.08;;;23.30;28.70;;;;;;6186005;23;20198;-71
2022/04/04 09:46:31;;;;;;;2.40;2.20;;;23.30;28.70;;;;;;6185783;23;20176;-71
2022/04/04 09:49:07;;;;;;;2.28;2.08;;;23.30;28.70;;;;;;6186233;23;20201;-71
2022/04/04 09:51:38;;;;;;;2.33;1.80;;;23.30;28.70;;;;;;6186028;23;20160;-71
2022/04/04 09:54:07;;;;;;;2.30;2.10;;;23.30;28.60;;;;;;6186012;23;20192;-71
2022/04/04 09:56:34;;;;;;;2.33;2.13;;;23.40;28.70;;;;;;6186096;23;20205;-71
2022/04/04 09:59:03;;;;;;;2.17;2.05;;;23.30;28.60;;;;;;6185780;23;20500;-71
2022/04/04 10:01:31;;;;;;;2.25;2.10;;;23.30;28.60;;;;;;6185945;23;20231;-71
2022/04/04 10:03:58;;;;;;;2.00;1.90;;;23.30;28.60;;;;;;6186223;23;20196;-71
2022/04/04 10:06:27;;;;;;;2.20;2.10;;;23.30;28.70;;;;;;6187446;23;20485;-71
2022/04/04 10:08:56;;;;;;;2.20;2.08;;;23.30;28.70;;;;;;6185849;23;20183;-71
2022/04/04 10:11:23;;;;;;;2.00;1.90;;;23.30;28.70;;;;;;6185970;23;20242;-71
2022/04/04 10:13:52;;;;;;;2.17;2.05;;;23.30;28.80;;;;;;6185845;23;20656;-71
2022/04/04 10:16:22;;;;;;;1.90;1.80;;;23.20;28.80;;;;;;6185841;23;20204;-71
2022/04/04 10:18:49;;;;;;;1.90;1.80;;;23.20;28.80;;;;;;6185667;23;20222;-70
2022/04/04 10:21:16;;;;;;;1.98;1.80;;;23.20;28.80;;;;;;6185892;23;20191;-71
2022/04/04 10:23:43;;;;;;;2.03;1.83;;;23.20;28.80;;;;;;6185940;23;20670;-71
2022/04/04 10:26:11;;;;;;;1.88;1.77;;;23.20;28.80;;;;;;6186084;23;20617;-71
2022/04/04 10:28:39;;;;;;;2.08;1.98;;;23.20;28.90;;;;;;6190170;23;20672;-71
2022/04/04 10:31:12;;;;;;;2.10;2.00;;;23.20;28.90;;;;;;6190599;23;20243;-71
2022/04/04 10:33:40;;;;;;;2.10;2.00;;;23.20;28.70;;;;;;6188314;23;20208;-71
2022/04/04 10:36:08;;;;;;;2.00;1.90;;;23.20;28.80;;;;;;6186232;23;20552;-71
2022/04/04 10:38:37;;;;;;;2.15;2.05;;;23.20;29.00;;;;;;6186301;23;20518;-71
2022/04/04 10:41:07;;;;;;;2.00;1.90;;;23.10;29.00;;;;;;6186228;23;20177;-71
2022/04/04 10:43:34;;;;;;;1.77;1.65;;;23.20;29.50;;;;;;6186423;23;20678;-71
2022/04/04 10:46:02;;;;;;;2.00;1.90;;;23.10;29.10;;;;;;6186346;23;20621;-72
2022/04/04 10:48:31;;;;;;;1.75;1.65;;;23.20;29.20;;;;;;6187875;23;20180;-71
2022/04/04 10:51:12;;;;;;;1.90;1.80;;;23.10;29.20;;;;;;6185896;23;20199;-71
2022/04/04 10:53:44;;;;;;;1.90;1.80;;;23.10;29.10;;;;;;6186498;23;20211;-71
2022/04/04 10:56:12;;;;;;;1.63;1.52;;;23.10;29.10;;;;;;6187733;23;20157;-71
2022/04/04 10:58:39;;;;;;;1.80;1.70;;;23.10;29.20;;;;;;6185936;23;20235;-71
2022/04/04 11:01:14;;;;;;;1.95;1.85;;;23.10;29.30;;;;;;6185672;23;20230;-71
2022/04/04 11:03:41;;;;;;;2.00;1.90;;;23.00;29.30;;;;;;6186919;23;20226;-71
2022/04/04 11:09:00;;;;;;;1.95;1.77;;;23.00;29.30;;;;;;6186029;23;20179;-71
2022/04/04 11:11:44;;;;;;;1.90;1.80;;;23.00;29.40;;;;;;6186112;23;20172;-71
2022/04/04 11:14:12;;;;;;;1.90;1.80;;;23.00;29.30;;;;;;6185974;23;20258;-71
2022/04/04 11:17:36;;;;;;;1.80;1.70;;;22.90;29.40;;;;;;6185565;23;20176;-71
2022/04/04 11:20:10;;;;;;;1.70;1.60;;;22.90;29.50;;;;;;6186099;23;20172;-71
2022/04/04 11:22:45;;;;;;;1.95;1.83;;;22.90;29.50;;;;;;6185815;23;20207;-71
2022/04/04 11:25:17;;;;;;;2.05;1.85;;;22.80;29.70;;;;;;6185728;23;20178;-71
2022/04/04 11:27:48;;;;;;;1.60;1.50;;;22.80;29.70;;;;;;6186099;23;20616;-71
2022/04/04 11:30:16;;;;;;;1.70;1.60;;;22.70;29.60;;;;;;6185484;23;20188;-71
2022/04/04 11:32:43;;;;;;;1.83;1.73;;;22.60;29.60;;;;;;6185540;23;20215;-71
2022/04/04 11:35:12;;;;;;;1.80;1.70;;;22.60;29.70;;;;;;6185508;23;20176;-71
2022/04/04 11:37:44;;;;;;;2.00;1.90;;;22.60;29.80;;;;;;6185381;23;20174;-71
2022/04/04 11:40:14;;;;;;;1.88;1.77;;;22.60;29.70;;;;;;6185325;23;20172;-71
2022/04/04 11:42:44;;;;;;;1.70;1.60;;;22.60;29.80;;;;;;6184960;23;20204;-71
2022/04/04 11:45:15;;;;;;;2.28;1.90;;;22.60;29.90;;;;;;6185043;23;20168;-71
2022/04/04 11:47:48;;;;;;;1.63;1.52;;;22.50;29.60;;;;;;6185682;23;20164;-71
2022/04/04 11:50:16;;;;;;;1.60;1.50;;;22.50;29.90;;;;;;6186148;23;20492;-71
2022/04/04 11:52:48;;;;;;;1.50;1.45;;;22.50;29.90;;;;;;6185343;23;20235;-71
2022/04/04 11:55:16;;;;;;;1.90;1.80;;;22.50;30.00;;;;;;6186410;23;20172;-71
2022/04/04 11:57:46;;;;;;;1.90;1.80;;;22.50;30.00;;;;;;6184867;23;20176;-71
2022/04/04 12:00:16;;;;;;;1.90;1.80;;;22.50;30.00;;;;;;6186644;23;20647;-71
2022/04/04 12:02:43;;;;;;;1.88;1.70;;;22.50;30.00;;;;;;6185238;23;20203;-71
2022/04/04 12:05:14;;;;;;;2.10;2.00;;;22.50;30.00;;;;;;6184778;23;20230;-71
2022/04/04 12:07:42;;;;;;;1.73;1.63;;;22.50;29.90;;;;;;6184952;23;20172;-71
2022/04/04 12:10:16;;;;;;;1.70;1.60;;;22.50;29.90;;;;;;6230136;22;20471;-69
2022/04/04 12:12:43;;;;;;;2.00;1.90;;;22.50;29.90;;;;;;6252225;22;20158;-69
2022/04/04 12:15:11;;;;;;;1.67;1.58;;;22.50;29.90;;;;;;6277224;22;20222;-69
2022/04/04 12:17:38;;;;;;;1.73;1.63;;;22.50;29.90;;;;;;6250036;22;20173;-68
2022/04/04 12:20:10;;;;;;;1.77;1.67;;;22.50;29.80;;;;;;6244782;23;20277;-69
2022/04/04 12:25:23;;;;;;;1.60;1.50;;;22.50;29.60;;;;;;6219412;23;20165;-68
2022/04/04 12:27:57;;;;;;;2.75;1.83;;;22.60;29.60;;;;;;6219401;23;20171;-69
2022/04/04 12:30:35;;;;;;;2.00;1.90;;;22.50;29.70;;;;;;6245878;23;20209;-69
2022/04/04 12:33:13;;;;;;;2.00;1.83;;;22.60;29.70;;;;;;6219689;23;20170;-69
2022/04/04 12:35:44;;;;;;;1.95;1.85;;;22.50;29.50;;;;;;6220169;23;20254;-69
2022/04/04 12:38:12;;;;;;;2.10;2.00;;;22.50;29.60;;;;;;6219601;23;20228;-69
2022/04/04 12:40:40;;;;;;;1.80;1.70;;;22.50;30.00;;;;;;6244401;23;20195;-69
2022/04/04 12:43:09;;;;;;;1.88;1.77;;;22.50;29.90;;;;;;6219339;23;20574;-69
2022/04/04 12:45:45;;;;;;;1.95;1.85;;;22.50;29.50;;;;;;6219732;23;20167;-69
2022/04/04 12:48:13;;;;;;;2.00;1.90;;;22.40;30.00;;;;;;6246347;23;20558;-69
2022/04/04 12:50:42;;;;;;;2.00;1.90;;;22.40;29.80;;;;;;6220198;23;20677;-69
2022/04/04 12:53:12;;;;;;;1.98;1.88;;;22.30;29.80;;;;;;6249604;23;20633;-69
2022/04/04 12:55:43;;;;;;;1.90;1.80;;;22.40;29.80;;;;;;6249730;23;20237;-69
2022/04/04 12:58:18;;;;;;;1.90;1.80;;;22.30;30.00;;;;;;6223114;23;20170;-69
2022/04/04 13:00:46;;;;;;;1.88;1.77;;;22.30;29.90;;;;;;6222891;23;20197;-69